sensor_id;sensor_type;location;lat;lon;timestamp;P1;durP1;ratioP1;P2;durP2;ratioP2
23586;SDS011;11971;51.148;4.104;2023-04-25T00:00:21;89.65;;;35.42;;
23586;SDS011;11971;51.148;4.104;2023-04-25T00:02:47;88.30;;;35.03;;
23586;SDS011;11971;51.148;4.104;2023-04-25T00:05:14;87.07;;;35.15;;
23586;SDS011;11971;51.148;4.104;2023-04-25T00:07:41;94.63;;;35.53;;
23586;SDS011;11971;51.148;4.104;2023-04-25T00:10:08;83.43;;;35.20;;
23586;SDS011;11971;51.148;4.104;2023-04-25T00:12:36;83.88;;;35.20;;
23586;SDS011;11971;51.148;4.104;2023-04-25T00:15:03;80.85;;;34.47;;
23586;SDS011;11971;51.148;4.104;2023-04-25T00:17:31;84.13;;;34.92;;
23586;SDS011;11971;51.148;4.104;2023-04-25T00:19:59;82.57;;;35.38;;
23586;SDS011;11971;51.148;4.104;2023-04-25T00:22:29;88.38;;;35.03;;
23586;SDS011;11971;51.148;4.104;2023-04-25T00:24:56;83.05;;;34.95;;
23586;SDS011;11971;51.148;4.104;2023-04-25T00:27:25;84.45;;;34.60;;
23586;SDS011;11971;51.148;4.104;2023-04-25T00:29:51;83.85;;;34.45;;
23586;SDS011;11971;51.148;4.104;2023-04-25T00:32:18;80.00;;;34.60;;
23586;SDS011;11971;51.148;4.104;2023-04-25T00:34:46;86.20;;;34.78;;
23586;SDS011;11971;51.148;4.104;2023-04-25T00:37:13;85.27;;;34.70;;
23586;SDS011;11971;51.148;4.104;2023-04-25T00:39:40;84.53;;;34.42;;
23586;SDS011;11971;51.148;4.104;2023-04-25T00:42:06;83.97;;;34.80;;
23586;SDS011;11971;51.148;4.104;2023-04-25T00:44:34;83.20;;;34.72;;
23586;SDS011;11971;51.148;4.104;2023-04-25T00:47:02;85.43;;;34.92;;
23586;SDS011;11971;51.148;4.104;2023-04-25T00:49:28;87.05;;;35.08;;
23586;SDS011;11971;51.148;4.104;2023-04-25T00:51:57;86.95;;;35.10;;
23586;SDS011;11971;51.148;4.104;2023-04-25T00:54:24;85.20;;;34.58;;
23586;SDS011;11971;51.148;4.104;2023-04-25T00:56:52;88.20;;;34.67;;
23586;SDS011;11971;51.148;4.104;2023-04-25T00:59:19;87.93;;;34.97;;
23586;SDS011;11971;51.148;4.104;2023-04-25T01:01:46;86.18;;;34.97;;
23586;SDS011;11971;51.148;4.104;2023-04-25T01:04:13;83.03;;;34.33;;
23586;SDS011;11971;51.148;4.104;2023-04-25T01:06:39;83.60;;;34.72;;
23586;SDS011;11971;51.148;4.104;2023-04-25T01:09:08;85.40;;;34.90;;
23586;SDS011;11971;51.148;4.104;2023-04-25T01:11:34;84.97;;;34.30;;
23586;SDS011;11971;51.148;4.104;2023-04-25T01:14:01;85.55;;;34.47;;
23586;SDS011;11971;51.148;4.104;2023-04-25T01:16:28;83.55;;;34.78;;
23586;SDS011;11971;51.148;4.104;2023-04-25T01:18:55;85.82;;;35.00;;
23586;SDS011;11971;51.148;4.104;2023-04-25T01:21:23;86.03;;;34.70;;
23586;SDS011;11971;51.148;4.104;2023-04-25T01:23:52;84.78;;;34.67;;
23586;SDS011;11971;51.148;4.104;2023-04-25T01:26:20;84.47;;;34.75;;
23586;SDS011;11971;51.148;4.104;2023-04-25T01:28:47;82.20;;;34.60;;
23586;SDS011;11971;51.148;4.104;2023-04-25T01:31:14;81.30;;;34.65;;
23586;SDS011;11971;51.148;4.104;2023-04-25T01:33:42;84.65;;;34.63;;
23586;SDS011;11971;51.148;4.104;2023-04-25T01:36:08;83.38;;;34.78;;
23586;SDS011;11971;51.148;4.104;2023-04-25T01:38:36;85.40;;;34.88;;
23586;SDS011;11971;51.148;4.104;2023-04-25T01:41:03;90.45;;;34.38;;
23586;SDS011;11971;51.148;4.104;2023-04-25T01:43:31;86.40;;;34.33;;
23586;SDS011;11971;51.148;4.104;2023-04-25T01:45:58;85.97;;;34.50;;
23586;SDS011;11971;51.148;4.104;2023-04-25T01:48:25;83.75;;;34.28;;
23586;SDS011;11971;51.148;4.104;2023-04-25T01:50:51;84.80;;;34.20;;
23586;SDS011;11971;51.148;4.104;2023-04-25T01:53:21;92.57;;;34.88;;
23586;SDS011;11971;51.148;4.104;2023-04-25T01:55:50;85.10;;;33.92;;
23586;SDS011;11971;51.148;4.104;2023-04-25T01:58:16;87.33;;;34.30;;
23586;SDS011;11971;51.148;4.104;2023-04-25T02:00:43;88.07;;;34.63;;
23586;SDS011;11971;51.148;4.104;2023-04-25T02:03:10;79.70;;;34.30;;
23586;SDS011;11971;51.148;4.104;2023-04-25T02:05:37;93.13;;;35.63;;
23586;SDS011;11971;51.148;4.104;2023-04-25T02:08:05;90.22;;;34.67;;
23586;SDS011;11971;51.148;4.104;2023-04-25T02:10:32;83.63;;;34.25;;
23586;SDS011;11971;51.148;4.104;2023-04-25T02:13:01;81.88;;;33.83;;
23586;SDS011;11971;51.148;4.104;2023-04-25T02:15:27;88.97;;;34.97;;
23586;SDS011;11971;51.148;4.104;2023-04-25T02:17:54;86.72;;;34.28;;
23586;SDS011;11971;51.148;4.104;2023-04-25T02:20:21;83.82;;;34.53;;
23586;SDS011;11971;51.148;4.104;2023-04-25T02:22:48;78.47;;;33.35;;
23586;SDS011;11971;51.148;4.104;2023-04-25T02:25:15;81.03;;;34.75;;
23586;SDS011;11971;51.148;4.104;2023-04-25T02:27:42;77.15;;;32.90;;
23586;SDS011;11971;51.148;4.104;2023-04-25T02:30:11;79.57;;;34.72;;
23586;SDS011;11971;51.148;4.104;2023-04-25T02:32:38;82.35;;;34.03;;
23586;SDS011;11971;51.148;4.104;2023-04-25T02:35:05;84.40;;;34.13;;
23586;SDS011;11971;51.148;4.104;2023-04-25T02:37:32;80.68;;;34.30;;
23586;SDS011;11971;51.148;4.104;2023-04-25T02:40:00;85.22;;;33.67;;
23586;SDS011;11971;51.148;4.104;2023-04-25T02:42:28;81.03;;;34.35;;
23586;SDS011;11971;51.148;4.104;2023-04-25T02:44:56;84.63;;;34.30;;
23586;SDS011;11971;51.148;4.104;2023-04-25T02:47:24;79.97;;;34.65;;
23586;SDS011;11971;51.148;4.104;2023-04-25T02:49:51;85.47;;;34.47;;
23586;SDS011;11971;51.148;4.104;2023-04-25T02:52:18;86.60;;;34.20;;
23586;SDS011;11971;51.148;4.104;2023-04-25T02:54:44;88.40;;;34.15;;
23586;SDS011;11971;51.148;4.104;2023-04-25T02:57:11;81.75;;;33.97;;
23586;SDS011;11971;51.148;4.104;2023-04-25T02:59:38;83.47;;;34.10;;
23586;SDS011;11971;51.148;4.104;2023-04-25T03:02:04;82.10;;;34.13;;
23586;SDS011;11971;51.148;4.104;2023-04-25T03:04:33;84.03;;;33.47;;
23586;SDS011;11971;51.148;4.104;2023-04-25T03:06:59;77.53;;;33.60;;
23586;SDS011;11971;51.148;4.104;2023-04-25T03:09:27;82.90;;;34.38;;
23586;SDS011;11971;51.148;4.104;2023-04-25T03:11:54;82.00;;;34.20;;
23586;SDS011;11971;51.148;4.104;2023-04-25T03:14:20;85.53;;;34.20;;
23586;SDS011;11971;51.148;4.104;2023-04-25T03:16:47;79.53;;;34.00;;
23586;SDS011;11971;51.148;4.104;2023-04-25T03:19:14;82.13;;;34.33;;
23586;SDS011;11971;51.148;4.104;2023-04-25T03:21:43;75.10;;;33.73;;
23586;SDS011;11971;51.148;4.104;2023-04-25T03:24:10;77.50;;;33.88;;
23586;SDS011;11971;51.148;4.104;2023-04-25T03:26:37;85.45;;;34.22;;
23586;SDS011;11971;51.148;4.104;2023-04-25T03:29:04;95.32;;;33.88;;
23586;SDS011;11971;51.148;4.104;2023-04-25T03:31:30;84.10;;;33.55;;
23586;SDS011;11971;51.148;4.104;2023-04-25T03:33:57;80.88;;;33.60;;
23586;SDS011;11971;51.148;4.104;2023-04-25T03:36:24;77.00;;;32.50;;
23586;SDS011;11971;51.148;4.104;2023-04-25T03:38:52;74.53;;;32.90;;
23586;SDS011;11971;51.148;4.104;2023-04-25T03:41:19;71.53;;;32.53;;
23586;SDS011;11971;51.148;4.104;2023-04-25T03:43:45;77.18;;;32.63;;
23586;SDS011;11971;51.148;4.104;2023-04-25T03:46:12;81.88;;;33.00;;
23586;SDS011;11971;51.148;4.104;2023-04-25T03:48:39;80.22;;;33.85;;
23586;SDS011;11971;51.148;4.104;2023-04-25T03:51:06;75.07;;;32.40;;
23586;SDS011;11971;51.148;4.104;2023-04-25T03:53:32;78.93;;;32.45;;
23586;SDS011;11971;51.148;4.104;2023-04-25T03:56:01;76.30;;;32.95;;
23586;SDS011;11971;51.148;4.104;2023-04-25T03:58:27;78.47;;;33.40;;
23586;SDS011;11971;51.148;4.104;2023-04-25T04:00:54;79.93;;;33.08;;
23586;SDS011;11971;51.148;4.104;2023-04-25T04:03:21;82.60;;;33.25;;
23586;SDS011;11971;51.148;4.104;2023-04-25T04:05:47;81.03;;;33.22;;
23586;SDS011;11971;51.148;4.104;2023-04-25T04:08:14;75.25;;;32.72;;
23586;SDS011;11971;51.148;4.104;2023-04-25T04:10:41;74.90;;;33.00;;
23586;SDS011;11971;51.148;4.104;2023-04-25T04:13:09;78.15;;;33.63;;
23586;SDS011;11971;51.148;4.104;2023-04-25T04:15:36;81.00;;;33.33;;
23586;SDS011;11971;51.148;4.104;2023-04-25T04:18:03;76.07;;;33.05;;
23586;SDS011;11971;51.148;4.104;2023-04-25T04:20:31;77.57;;;33.50;;
23586;SDS011;11971;51.148;4.104;2023-04-25T04:22:57;75.10;;;33.05;;
23586;SDS011;11971;51.148;4.104;2023-04-25T04:25:24;79.78;;;33.33;;
23586;SDS011;11971;51.148;4.104;2023-04-25T04:27:51;84.20;;;34.50;;
23586;SDS011;11971;51.148;4.104;2023-04-25T04:30:21;80.22;;;33.60;;
23586;SDS011;11971;51.148;4.104;2023-04-25T04:32:50;77.43;;;33.08;;
23586;SDS011;11971;51.148;4.104;2023-04-25T04:35:17;77.90;;;33.13;;
23586;SDS011;11971;51.148;4.104;2023-04-25T04:37:43;79.38;;;33.85;;
23586;SDS011;11971;51.148;4.104;2023-04-25T04:40:11;82.70;;;33.40;;
23586;SDS011;11971;51.148;4.104;2023-04-25T04:45:07;78.03;;;32.75;;
23586;SDS011;11971;51.148;4.104;2023-04-25T04:47:36;74.97;;;32.97;;
23586;SDS011;11971;51.148;4.104;2023-04-25T04:50:04;77.68;;;33.50;;
23586;SDS011;11971;51.148;4.104;2023-04-25T04:52:32;80.05;;;32.97;;
23586;SDS011;11971;51.148;4.104;2023-04-25T04:54:59;80.13;;;33.08;;
23586;SDS011;11971;51.148;4.104;2023-04-25T04:57:25;81.45;;;33.42;;
23586;SDS011;11971;51.148;4.104;2023-04-25T04:59:52;74.90;;;33.00;;
23586;SDS011;11971;51.148;4.104;2023-04-25T05:02:19;82.53;;;33.63;;
23586;SDS011;11971;51.148;4.104;2023-04-25T05:04:47;79.30;;;33.13;;
23586;SDS011;11971;51.148;4.104;2023-04-25T05:07:14;79.80;;;33.50;;
23586;SDS011;11971;51.148;4.104;2023-04-25T05:09:42;73.78;;;33.35;;
23586;SDS011;11971;51.148;4.104;2023-04-25T05:12:09;78.95;;;33.60;;
23586;SDS011;11971;51.148;4.104;2023-04-25T05:14:35;75.75;;;33.53;;
23586;SDS011;11971;51.148;4.104;2023-04-25T05:17:03;84.85;;;33.80;;
23586;SDS011;11971;51.148;4.104;2023-04-25T05:19:31;79.72;;;33.75;;
23586;SDS011;11971;51.148;4.104;2023-04-25T05:21:59;82.70;;;34.22;;
23586;SDS011;11971;51.148;4.104;2023-04-25T05:24:26;83.35;;;34.25;;
23586;SDS011;11971;51.148;4.104;2023-04-25T05:26:53;83.07;;;34.47;;
23586;SDS011;11971;51.148;4.104;2023-04-25T05:29:20;85.70;;;33.83;;
23586;SDS011;11971;51.148;4.104;2023-04-25T05:31:46;83.80;;;33.78;;
23586;SDS011;11971;51.148;4.104;2023-04-25T05:34:13;82.07;;;33.75;;
23586;SDS011;11971;51.148;4.104;2023-04-25T05:36:41;75.95;;;33.78;;
23586;SDS011;11971;51.148;4.104;2023-04-25T05:39:09;81.25;;;33.85;;
23586;SDS011;11971;51.148;4.104;2023-04-25T05:41:37;92.75;;;34.42;;
23586;SDS011;11971;51.148;4.104;2023-04-25T05:44:04;79.90;;;33.85;;
23586;SDS011;11971;51.148;4.104;2023-04-25T05:46:31;84.40;;;33.50;;
23586;SDS011;11971;51.148;4.104;2023-04-25T05:48:58;84.45;;;33.85;;
23586;SDS011;11971;51.148;4.104;2023-04-25T05:51:25;82.88;;;33.83;;
23586;SDS011;11971;51.148;4.104;2023-04-25T05:53:52;85.63;;;33.78;;
23586;SDS011;11971;51.148;4.104;2023-04-25T05:56:20;82.03;;;33.78;;
23586;SDS011;11971;51.148;4.104;2023-04-25T05:58:47;75.37;;;33.37;;
23586;SDS011;11971;51.148;4.104;2023-04-25T06:01:14;82.30;;;34.10;;
23586;SDS011;11971;51.148;4.104;2023-04-25T06:03:41;83.95;;;34.35;;
23586;SDS011;11971;51.148;4.104;2023-04-25T06:06:10;81.32;;;33.53;;
23586;SDS011;11971;51.148;4.104;2023-04-25T06:08:37;82.47;;;33.95;;
23586;SDS011;11971;51.148;4.104;2023-04-25T06:11:04;82.78;;;33.90;;
23586;SDS011;11971;51.148;4.104;2023-04-25T06:13:33;79.90;;;34.30;;
23586;SDS011;11971;51.148;4.104;2023-04-25T06:16:00;81.53;;;34.10;;
23586;SDS011;11971;51.148;4.104;2023-04-25T06:18:27;80.82;;;34.28;;
23586;SDS011;11971;51.148;4.104;2023-04-25T06:20:54;75.50;;;33.67;;
23586;SDS011;11971;51.148;4.104;2023-04-25T06:23:21;81.22;;;34.10;;
23586;SDS011;11971;51.148;4.104;2023-04-25T06:25:48;78.30;;;33.83;;
23586;SDS011;11971;51.148;4.104;2023-04-25T06:28:16;82.47;;;34.03;;
23586;SDS011;11971;51.148;4.104;2023-04-25T06:30:45;83.53;;;34.15;;
23586;SDS011;11971;51.148;4.104;2023-04-25T06:33:11;87.03;;;33.78;;
23586;SDS011;11971;51.148;4.104;2023-04-25T06:35:38;76.00;;;33.15;;
23586;SDS011;11971;51.148;4.104;2023-04-25T06:38:05;78.13;;;33.75;;
23586;SDS011;11971;51.148;4.104;2023-04-25T06:40:32;79.60;;;33.35;;
23586;SDS011;11971;51.148;4.104;2023-04-25T06:42:58;82.03;;;33.78;;
23586;SDS011;11971;51.148;4.104;2023-04-25T06:45:25;78.40;;;33.10;;
23586;SDS011;11971;51.148;4.104;2023-04-25T06:47:54;78.72;;;33.03;;
23586;SDS011;11971;51.148;4.104;2023-04-25T06:50:21;76.43;;;32.97;;
23586;SDS011;11971;51.148;4.104;2023-04-25T06:52:48;74.18;;;32.95;;
23586;SDS011;11971;51.148;4.104;2023-04-25T06:55:15;77.30;;;33.58;;
23586;SDS011;11971;51.148;4.104;2023-04-25T06:57:41;79.18;;;33.80;;
23586;SDS011;11971;51.148;4.104;2023-04-25T07:00:09;76.07;;;33.17;;
23586;SDS011;11971;51.148;4.104;2023-04-25T07:02:36;82.30;;;32.95;;
23586;SDS011;11971;51.148;4.104;2023-04-25T07:05:04;78.88;;;32.83;;
23586;SDS011;11971;51.148;4.104;2023-04-25T07:07:31;78.53;;;32.90;;
23586;SDS011;11971;51.148;4.104;2023-04-25T07:09:58;75.90;;;32.97;;
23586;SDS011;11971;51.148;4.104;2023-04-25T07:12:25;75.43;;;32.78;;
23586;SDS011;11971;51.148;4.104;2023-04-25T07:14:52;80.53;;;33.25;;
23586;SDS011;11971;51.148;4.104;2023-04-25T07:17:19;77.95;;;32.63;;
23586;SDS011;11971;51.148;4.104;2023-04-25T07:19:45;78.57;;;33.42;;
23586;SDS011;11971;51.148;4.104;2023-04-25T07:22:14;75.10;;;32.65;;
23586;SDS011;11971;51.148;4.104;2023-04-25T07:24:40;78.28;;;32.90;;
23586;SDS011;11971;51.148;4.104;2023-04-25T07:27:07;76.38;;;32.63;;
23586;SDS011;11971;51.148;4.104;2023-04-25T07:29:34;77.22;;;32.85;;
23586;SDS011;11971;51.148;4.104;2023-04-25T07:32:02;85.13;;;34.28;;
23586;SDS011;11971;51.148;4.104;2023-04-25T07:34:29;81.28;;;33.25;;
23586;SDS011;11971;51.148;4.104;2023-04-25T07:36:57;84.00;;;33.42;;
23586;SDS011;11971;51.148;4.104;2023-04-25T07:39:25;82.15;;;33.67;;
23586;SDS011;11971;51.148;4.104;2023-04-25T07:41:52;76.60;;;32.95;;
23586;SDS011;11971;51.148;4.104;2023-04-25T07:44:19;78.55;;;33.00;;
23586;SDS011;11971;51.148;4.104;2023-04-25T07:46:46;75.07;;;32.85;;
23586;SDS011;11971;51.148;4.104;2023-04-25T07:49:13;77.10;;;33.08;;
23586;SDS011;11971;51.148;4.104;2023-04-25T07:51:40;74.10;;;32.45;;
23586;SDS011;11971;51.148;4.104;2023-04-25T07:54:08;76.88;;;32.95;;
23586;SDS011;11971;51.148;4.104;2023-04-25T07:56:37;75.72;;;32.42;;
23586;SDS011;11971;51.148;4.104;2023-04-25T07:59:04;79.22;;;32.70;;
23586;SDS011;11971;51.148;4.104;2023-04-25T08:01:31;73.72;;;32.20;;
23586;SDS011;11971;51.148;4.104;2023-04-25T08:04:01;79.05;;;32.38;;
23586;SDS011;11971;51.148;4.104;2023-04-25T08:06:28;75.53;;;32.38;;
23586;SDS011;11971;51.148;4.104;2023-04-25T08:08:54;79.22;;;32.90;;
23586;SDS011;11971;51.148;4.104;2023-04-25T08:11:21;74.43;;;32.47;;
23586;SDS011;11971;51.148;4.104;2023-04-25T08:13:49;75.10;;;32.20;;
23586;SDS011;11971;51.148;4.104;2023-04-25T08:16:16;74.37;;;31.97;;
23586;SDS011;11971;51.148;4.104;2023-04-25T08:18:43;72.85;;;32.30;;
23586;SDS011;11971;51.148;4.104;2023-04-25T08:21:10;73.25;;;32.03;;
23586;SDS011;11971;51.148;4.104;2023-04-25T08:23:37;71.50;;;31.95;;
23586;SDS011;11971;51.148;4.104;2023-04-25T08:26:05;74.10;;;32.15;;
23586;SDS011;11971;51.148;4.104;2023-04-25T08:28:31;73.40;;;32.33;;
23586;SDS011;11971;51.148;4.104;2023-04-25T08:31:00;71.70;;;31.90;;
23586;SDS011;11971;51.148;4.104;2023-04-25T08:33:28;77.65;;;32.90;;
23586;SDS011;11971;51.148;4.104;2023-04-25T08:35:55;73.57;;;32.63;;
23586;SDS011;11971;51.148;4.104;2023-04-25T08:38:22;74.95;;;32.75;;
23586;SDS011;11971;51.148;4.104;2023-04-25T08:40:49;79.00;;;32.80;;
23586;SDS011;11971;51.148;4.104;2023-04-25T08:43:17;78.22;;;32.80;;
23586;SDS011;11971;51.148;4.104;2023-04-25T08:45:45;76.65;;;32.83;;
23586;SDS011;11971;51.148;4.104;2023-04-25T08:48:15;76.70;;;33.50;;
23586;SDS011;11971;51.148;4.104;2023-04-25T08:50:45;78.43;;;33.17;;
23586;SDS011;11971;51.148;4.104;2023-04-25T08:53:14;76.15;;;32.78;;
23586;SDS011;11971;51.148;4.104;2023-04-25T08:55:43;77.40;;;33.20;;
23586;SDS011;11971;51.148;4.104;2023-04-25T08:58:12;75.40;;;32.90;;
23586;SDS011;11971;51.148;4.104;2023-04-25T09:00:39;78.50;;;33.33;;
23586;SDS011;11971;51.148;4.104;2023-04-25T09:03:06;78.75;;;33.42;;
23586;SDS011;11971;51.148;4.104;2023-04-25T09:05:35;80.30;;;33.45;;
23586;SDS011;11971;51.148;4.104;2023-04-25T09:10:29;87.80;;;35.13;;
23586;SDS011;11971;51.148;4.104;2023-04-25T09:13:03;79.22;;;34.28;;
23586;SDS011;11971;51.148;4.104;2023-04-25T09:15:31;79.55;;;33.50;;
23586;SDS011;11971;51.148;4.104;2023-04-25T09:17:59;76.93;;;33.55;;
23586;SDS011;11971;51.148;4.104;2023-04-25T09:20:26;78.72;;;34.40;;
23586;SDS011;11971;51.148;4.104;2023-04-25T09:23:14;79.50;;;33.97;;
23586;SDS011;11971;51.148;4.104;2023-04-25T09:25:41;80.40;;;35.00;;
23586;SDS011;11971;51.148;4.104;2023-04-25T09:28:08;80.40;;;34.08;;
23586;SDS011;11971;51.148;4.104;2023-04-25T09:30:35;79.18;;;33.65;;
23586;SDS011;11971;51.148;4.104;2023-04-25T09:33:07;84.50;;;34.60;;
23586;SDS011;11971;51.148;4.104;2023-04-25T09:35:35;82.07;;;34.35;;
23586;SDS011;11971;51.148;4.104;2023-04-25T09:38:08;78.40;;;33.77;;
23586;SDS011;11971;51.148;4.104;2023-04-25T09:40:39;77.53;;;33.45;;
23586;SDS011;11971;51.148;4.104;2023-04-25T09:43:08;75.45;;;32.28;;
23586;SDS011;11971;51.148;4.104;2023-04-25T09:45:40;77.03;;;33.55;;
23586;SDS011;11971;51.148;4.104;2023-04-25T09:48:12;76.65;;;33.75;;
23586;SDS011;11971;51.148;4.104;2023-04-25T09:50:43;77.20;;;33.38;;
23586;SDS011;11971;51.148;4.104;2023-04-25T09:53:11;73.35;;;31.90;;
23586;SDS011;11971;51.148;4.104;2023-04-25T09:55:38;72.07;;;32.08;;
23586;SDS011;11971;51.148;4.104;2023-04-25T09:58:06;71.82;;;31.98;;
23586;SDS011;11971;51.148;4.104;2023-04-25T10:00:34;71.63;;;31.73;;
23586;SDS011;11971;51.148;4.104;2023-04-25T10:03:01;72.65;;;32.17;;
23586;SDS011;11971;51.148;4.104;2023-04-25T10:05:30;73.90;;;32.00;;
23586;SDS011;11971;51.148;4.104;2023-04-25T10:07:58;72.05;;;32.20;;
23586;SDS011;11971;51.148;4.104;2023-04-25T10:10:27;73.53;;;32.72;;
23586;SDS011;11971;51.148;4.104;2023-04-25T10:12:54;75.07;;;33.13;;
23586;SDS011;11971;51.148;4.104;2023-04-25T10:15:21;74.47;;;32.85;;
23586;SDS011;11971;51.148;4.104;2023-04-25T10:17:48;77.90;;;33.10;;
23586;SDS011;11971;51.148;4.104;2023-04-25T10:20:15;77.82;;;32.25;;
23586;SDS011;11971;51.148;4.104;2023-04-25T10:22:44;73.80;;;32.58;;
23586;SDS011;11971;51.148;4.104;2023-04-25T10:25:12;76.85;;;33.13;;
23586;SDS011;11971;51.148;4.104;2023-04-25T10:27:40;77.75;;;33.17;;
23586;SDS011;11971;51.148;4.104;2023-04-25T10:30:08;78.65;;;33.10;;
23586;SDS011;11971;51.148;4.104;2023-04-25T10:32:37;81.47;;;33.90;;
23586;SDS011;11971;51.148;4.104;2023-04-25T10:35:11;78.60;;;33.83;;
23586;SDS011;11971;51.148;4.104;2023-04-25T10:37:46;80.25;;;33.40;;
23586;SDS011;11971;51.148;4.104;2023-04-25T10:40:23;75.43;;;32.30;;
23586;SDS011;11971;51.148;4.104;2023-04-25T10:42:52;78.32;;;33.80;;
23586;SDS011;11971;51.148;4.104;2023-04-25T10:45:19;75.55;;;32.55;;
23586;SDS011;11971;51.148;4.104;2023-04-25T10:47:46;78.55;;;32.83;;
23586;SDS011;11971;51.148;4.104;2023-04-25T10:50:14;76.05;;;32.83;;
23586;SDS011;11971;51.148;4.104;2023-04-25T10:52:41;82.50;;;33.53;;
23586;SDS011;11971;51.148;4.104;2023-04-25T10:55:09;76.70;;;33.13;;
23586;SDS011;11971;51.148;4.104;2023-04-25T10:57:36;78.30;;;32.90;;
23586;SDS011;11971;51.148;4.104;2023-04-25T11:00:09;78.27;;;33.37;;
23586;SDS011;11971;51.148;4.104;2023-04-25T11:02:40;77.07;;;32.95;;
23586;SDS011;11971;51.148;4.104;2023-04-25T11:05:10;77.43;;;33.15;;
23586;SDS011;11971;51.148;4.104;2023-04-25T11:07:38;78.15;;;33.15;;
23586;SDS011;11971;51.148;4.104;2023-04-25T11:10:09;80.45;;;33.40;;
23586;SDS011;11971;51.148;4.104;2023-04-25T11:12:36;80.70;;;33.78;;
23586;SDS011;11971;51.148;4.104;2023-04-25T11:15:03;82.95;;;33.80;;
23586;SDS011;11971;51.148;4.104;2023-04-25T11:17:33;79.75;;;33.63;;
23586;SDS011;11971;51.148;4.104;2023-04-25T11:20:00;79.13;;;33.33;;
23586;SDS011;11971;51.148;4.104;2023-04-25T11:22:29;79.15;;;33.47;;
23586;SDS011;11971;51.148;4.104;2023-04-25T11:24:56;82.43;;;33.22;;
23586;SDS011;11971;51.148;4.104;2023-04-25T11:27:22;78.60;;;33.33;;
23586;SDS011;11971;51.148;4.104;2023-04-25T11:29:50;78.38;;;33.65;;
23586;SDS011;11971;51.148;4.104;2023-04-25T11:32:17;80.45;;;33.35;;
23586;SDS011;11971;51.148;4.104;2023-04-25T11:34:46;76.82;;;32.88;;
23586;SDS011;11971;51.148;4.104;2023-04-25T11:37:14;79.45;;;33.42;;
23586;SDS011;11971;51.148;4.104;2023-04-25T11:39:45;75.90;;;32.67;;
23586;SDS011;11971;51.148;4.104;2023-04-25T11:42:12;78.05;;;33.03;;
23586;SDS011;11971;51.148;4.104;2023-04-25T11:44:39;76.20;;;32.85;;
23586;SDS011;11971;51.148;4.104;2023-04-25T11:47:07;76.87;;;32.83;;
23586;SDS011;11971;51.148;4.104;2023-04-25T11:49:34;76.57;;;33.20;;
23586;SDS011;11971;51.148;4.104;2023-04-25T11:52:03;75.90;;;32.45;;
23586;SDS011;11971;51.148;4.104;2023-04-25T11:54:34;79.68;;;33.33;;
23586;SDS011;11971;51.148;4.104;2023-04-25T11:57:01;77.70;;;32.95;;
23586;SDS011;11971;51.148;4.104;2023-04-25T11:59:28;76.55;;;32.85;;
23586;SDS011;11971;51.148;4.104;2023-04-25T12:01:56;78.15;;;33.00;;
23586;SDS011;11971;51.148;4.104;2023-04-25T12:04:23;78.28;;;33.22;;
23586;SDS011;11971;51.148;4.104;2023-04-25T12:06:51;81.05;;;33.58;;
23586;SDS011;11971;51.148;4.104;2023-04-25T12:09:21;82.18;;;33.53;;
23586;SDS011;11971;51.148;4.104;2023-04-25T12:11:54;81.05;;;33.50;;
23586;SDS011;11971;51.148;4.104;2023-04-25T12:14:22;79.72;;;33.63;;
23586;SDS011;11971;51.148;4.104;2023-04-25T12:16:50;84.03;;;33.92;;
23586;SDS011;11971;51.148;4.104;2023-04-25T12:19:17;80.30;;;33.92;;
23586;SDS011;11971;51.148;4.104;2023-04-25T12:21:45;78.38;;;33.20;;
23586;SDS011;11971;51.148;4.104;2023-04-25T12:24:12;79.88;;;33.40;;
23586;SDS011;11971;51.148;4.104;2023-04-25T12:26:47;77.68;;;32.95;;
23586;SDS011;11971;51.148;4.104;2023-04-25T12:29:16;79.68;;;33.30;;
23586;SDS011;11971;51.148;4.104;2023-04-25T12:31:43;76.23;;;33.10;;
23586;SDS011;11971;51.148;4.104;2023-04-25T12:34:11;76.13;;;33.00;;
23586;SDS011;11971;51.148;4.104;2023-04-25T12:36:38;78.70;;;33.13;;
23586;SDS011;11971;51.148;4.104;2023-04-25T12:39:05;78.68;;;32.65;;
23586;SDS011;11971;51.148;4.104;2023-04-25T12:41:33;81.40;;;33.13;;
23586;SDS011;11971;51.148;4.104;2023-04-25T12:44:04;76.18;;;32.78;;
23586;SDS011;11971;51.148;4.104;2023-04-25T12:46:30;77.80;;;33.17;;
23586;SDS011;11971;51.148;4.104;2023-04-25T12:48:57;77.15;;;33.17;;
23586;SDS011;11971;51.148;4.104;2023-04-25T12:51:25;77.32;;;32.88;;
23586;SDS011;11971;51.148;4.104;2023-04-25T12:53:52;75.63;;;32.55;;
23586;SDS011;11971;51.148;4.104;2023-04-25T12:56:19;77.93;;;33.00;;
23586;SDS011;11971;51.148;4.104;2023-04-25T12:58:46;77.88;;;33.28;;
23586;SDS011;11971;51.148;4.104;2023-04-25T13:01:15;87.18;;;33.30;;
23586;SDS011;11971;51.148;4.104;2023-04-25T13:03:42;82.72;;;33.85;;
23586;SDS011;11971;51.148;4.104;2023-04-25T13:06:09;81.55;;;34.08;;
23586;SDS011;11971;51.148;4.104;2023-04-25T13:08:36;80.18;;;33.80;;
23586;SDS011;11971;51.148;4.104;2023-04-25T13:11:04;80.97;;;33.67;;
23586;SDS011;11971;51.148;4.104;2023-04-25T13:13:31;80.18;;;33.40;;
23586;SDS011;11971;51.148;4.104;2023-04-25T13:15:59;79.97;;;33.63;;
23586;SDS011;11971;51.148;4.104;2023-04-25T13:18:28;79.55;;;33.30;;
23586;SDS011;11971;51.148;4.104;2023-04-25T13:20:55;76.85;;;32.95;;
23586;SDS011;11971;51.148;4.104;2023-04-25T13:23:22;76.65;;;32.88;;
23586;SDS011;11971;51.148;4.104;2023-04-25T13:25:51;79.97;;;33.28;;
23586;SDS011;11971;51.148;4.104;2023-04-25T13:28:18;79.53;;;33.42;;
23586;SDS011;11971;51.148;4.104;2023-04-25T13:30:46;79.50;;;33.30;;
23586;SDS011;11971;51.148;4.104;2023-04-25T13:33:14;79.72;;;33.33;;
23586;SDS011;11971;51.148;4.104;2023-04-25T13:35:42;77.95;;;33.38;;
23586;SDS011;11971;51.148;4.104;2023-04-25T13:38:11;80.30;;;33.72;;
23586;SDS011;11971;51.148;4.104;2023-04-25T13:40:38;79.43;;;33.97;;
23586;SDS011;11971;51.148;4.104;2023-04-25T13:43:05;80.18;;;33.80;;
23586;SDS011;11971;51.148;4.104;2023-04-25T13:45:32;89.38;;;33.90;;
23586;SDS011;11971;51.148;4.104;2023-04-25T13:48:17;81.53;;;33.70;;
23586;SDS011;11971;51.148;4.104;2023-04-25T13:50:44;82.07;;;33.83;;
23586;SDS011;11971;51.148;4.104;2023-04-25T13:53:11;85.72;;;33.90;;
23586;SDS011;11971;51.148;4.104;2023-04-25T13:55:38;79.28;;;33.53;;
23586;SDS011;11971;51.148;4.104;2023-04-25T13:58:05;79.20;;;33.70;;
23586;SDS011;11971;51.148;4.104;2023-04-25T14:00:35;77.72;;;33.22;;
23586;SDS011;11971;51.148;4.104;2023-04-25T14:03:03;78.15;;;33.15;;
23586;SDS011;11971;51.148;4.104;2023-04-25T14:05:34;79.30;;;33.08;;
23586;SDS011;11971;51.148;4.104;2023-04-25T14:08:05;78.60;;;33.05;;
23586;SDS011;11971;51.148;4.104;2023-04-25T14:10:32;76.32;;;32.67;;
23586;SDS011;11971;51.148;4.104;2023-04-25T14:12:59;77.38;;;33.30;;
23586;SDS011;11971;51.148;4.104;2023-04-25T14:15:28;77.72;;;33.28;;
23586;SDS011;11971;51.148;4.104;2023-04-25T14:17:55;83.07;;;33.60;;
23586;SDS011;11971;51.148;4.104;2023-04-25T14:20:22;82.53;;;33.10;;
23586;SDS011;11971;51.148;4.104;2023-04-25T14:22:50;77.93;;;33.33;;
23586;SDS011;11971;51.148;4.104;2023-04-25T14:25:18;77.43;;;33.20;;
23586;SDS011;11971;51.148;4.104;2023-04-25T14:27:47;77.55;;;32.95;;